Latest Coastal Weather Observations for Maria Island

IDT60701

Issued at 2:03 am EDT Monday 27 March 2017 (issued every 10 minutes, with the page automatically refreshed every 10 minutes)

About coastal observations | Map of coastal stations | Coastal observations for TAS | Marine services | Other Formats
Station Details ID: 092124 Name: MARIA ISLAND (POINT LESUEUR) Lat: -42.66 Lon: 148.02 Height: 28.0 m
Data from the previous 72 hours. | See also: Recent months at Maria Island
Date/Time
EDT
Temp
°C
Wind Pressure Rain since
9am
mm
Weather Cloud Vis
km
Sea
Height
m
Swell
Dir  Spd
kts
Gust
kts
hPa Trend Height
m
Period
s
Dir
27/02:00am 17.1 N 19 21 1009.5 - 0.0 - - - - - - -
27/01:30am 17.2 N 13 16 1010.3 - 0.0 - - - - - - -
27/01:00am 17.2 N 18 21 1010.7 - 0.0 - - - - - - -
27/12:30am 17.1 N 13 16 1011.4 - 0.0 - - - - - - -
27/12:00am 17.1 N 13 17 1012.0 - 0.0 - - - - - - -
 
Date/Time
EDT
Temp
°C
Wind Pressure Rain since
9am
mm
Weather Cloud Vis
km
Sea
Height
m
Swell
Dir  Spd
kts
Gust
kts
hPa Trend Height
m
Period
s
Dir
26/11:30pm 17.1 NNE 13 15 1012.6 - 0.0 - - - - - - -
26/11:00pm 17.1 N 11 13 1013.3 - 0.0 - - - - - - -
26/10:30pm 16.9 NNE 11 13 1013.3 - 0.0 - - - - - - -
26/10:00pm 16.8 NNE 10 12 1013.4 - 0.0 - - - - - - -
26/09:30pm 16.5 N 7 9 1013.9 - 0.0 - - - - - - -
26/09:00pm 16.4 N 6 7 1013.9 - 0.0 - - - - - - -
26/08:30pm 16.2 NE 2 3 1013.8 - 0.0 - - - - - - -
26/08:00pm 16.7 NE 4 7 1013.9 - 0.0 - - - - - - -
26/07:30pm 16.7 WNW 6 8 1013.8 - 0.0 - - - - - - -
26/07:00pm 16.9 E 7 10 1013.8 - 0.0 - - - - - - -
26/06:30pm 17.4 ESE 6 8 1013.8 - 0.0 - - - - - - -
26/06:00pm 17.8 ESE 8 9 1013.6 - 0.0 - - - - - - -
26/05:30pm 18.2 E 7 10 1013.7 - 0.0 - - - - - - -
26/05:00pm 18.4 E 7 8 1013.8 - 0.0 - - - - - - -
26/04:30pm 18.7 E 10 12 1013.8 - 0.0 - - - - - - -
26/04:00pm 18.8 E 10 12 1013.9 - 0.0 - - - - - - -
26/03:30pm 18.9 E 11 13 1013.9 - 0.0 - - - - - - -
26/03:00pm 18.9 E 11 13 1014.0 - 0.0 - - - - - - -
26/02:30pm 19.3 E 10 12 1014.4 - 0.0 - - - - - - -
26/02:00pm 19.1 E 12 15 1014.6 - 0.0 - - - - - - -
26/01:30pm 19.7 E 9 11 1014.8 - 0.0 - - - - - - -
26/01:00pm 19.1 E 9 11 1015.3 - 0.0 - - - - - - -
26/12:30pm 19.6 E 8 10 1015.4 - 0.0 - - - - - - -
26/12:00pm 18.8 SSE 4 6 1015.6 - 0.0 - - - - - - -
26/11:30am 18.3 S 5 6 1015.9 - 0.0 - - - - - - -
26/11:00am 17.7 S 6 7 1015.7 - 0.0 - - - - - - -
26/10:30am 17.4 S 5 7 1015.8 - 0.0 - - - - - - -
26/10:00am 16.7 S 8 9 1015.7 - 0.0 - - - - - - -
26/09:30am 16.1 S 2 3 1015.3 - 0.0 - - - - - - -
26/09:00am 15.2 WNW 3 3 1015.1 - 0.0 - - - - - - -
26/08:30am 15.2 W 3 3 1014.6 - 0.0 - - - - - - -
26/08:00am 14.6 W 3 3 1014.4 - 0.0 - - - - - - -
26/07:30am 13.9 WNW 4 4 1014.0 - 0.0 - - - - - - -
26/07:00am 15.0 SW 1 4 1013.4 - 0.0 - - - - - - -
26/06:30am 14.8 SSE 2 3 1013.4 - 0.0 - - - - - - -
26/06:00am 14.8 S 3 5 1013.3 - 0.0 - - - - - - -
26/05:30am 14.7 SW 2 3 1013.2 - 0.0 - - - - - - -
26/05:00am 14.8 SW 1 1 1013.2 - 0.0 - - - - - - -
26/04:30am 14.6 CALM 0 0 1013.2 - 0.0 - - - - - - -
26/04:00am 15.0 W 3 3 1013.4 - 0.0 - - - - - - -
26/03:30am 14.9 SW 1 2 1013.2 - 0.0 - - - - - - -
26/03:00am 14.8 CALM 0 0 1013.4 - 0.0 - - - - - - -
26/02:30am 15.2 CALM 0 0 1013.4 - 0.0 - - - - - - -
26/02:00am 15.1 NW 2 2 1013.5 - 0.0 - - - - - - -
26/01:30am 14.7 WNW 3 4 1013.4 - 0.0 - - - - - - -
26/01:00am 15.0 NW 3 4 1013.3 - 0.0 - - - - - - -
26/12:30am 14.8 WNW 3 4 1013.3 - 0.0 - - - - - - -
26/12:00am 15.9 N 3 3 1013.4 - 0.0 - - - - - - -
 
Date/Time
EDT
Temp
°C
Wind Pressure Rain since
9am
mm
Weather Cloud Vis
km
Sea
Height
m
Swell
Dir  Spd
kts
Gust
kts
hPa Trend Height
m
Period
s
Dir
25/11:30pm 15.7 N 2 2 1013.5 - 0.0 - - - - - - -
25/11:00pm 16.1 N 3 4 1013.4 - 0.0 - - - - - - -
25/10:30pm 16.4 N 4 5 1013.3 - 0.0 - - - - - - -
25/10:00pm 16.6 NNE 4 4 1013.2 - 0.0 - - - - - - -
25/09:30pm 16.7 NNE 5 6 1012.9 - 0.0 - - - - - - -
25/09:00pm 17.2 N 7 8 1012.7 - 0.0 - - - - - - -
25/08:30pm 17.4 N 8 9 1012.6 - 0.0 - - - - - - -
25/08:00pm 17.5 N 8 9 1012.5 - 0.0 - - - - - - -
25/07:30pm 17.6 N 10 11 1012.3 - 0.0 - - - - - - -
25/07:00pm 17.6 N 9 10 1012.1 - 0.0 - - - - - - -
25/06:30pm 17.7 N 9 10 1012.0 - 0.0 - - - - - - -
25/06:00pm 17.7 N 10 12 1011.7 - 0.0 - - - - - - -
25/05:30pm 17.7 N 10 12 1011.9 - 0.0 - - - - - - -
25/05:00pm 17.8 N 12 13 1011.8 - 0.0 - - - - - - -
25/04:30pm 17.8 N 13 14 1011.9 - 0.0 - - - - - - -
25/04:00pm 17.8 N 12 14 1012.1 - 0.0 - - - - - - -
25/03:30pm 17.9 N 12 14 1012.3 - 0.0 - - - - - - -
25/03:00pm 18.3 N 11 14 1012.3 - 0.0 - - - - - - -
25/02:30pm 18.7 N 8 10 1012.9 - 0.0 - - - - - - -
25/02:00pm 18.0 N 9 10 1013.1 - 0.0 - - - - - - -
25/01:30pm 17.6 N 7 8 1013.6 - 0.0 - - - - - - -
25/01:00pm 17.3 N 7 8 1014.0 - 0.0 - - - - - - -
25/12:30pm 17.1 N 9 10 1014.3 - 0.0 - - - - - - -
25/12:00pm 17.0 N 9 11 1014.7 - 0.0 - - - - - - -
25/11:30am 16.4 N 11 12 1015.1 - 0.0 - - - - - - -
25/11:00am 16.5 N 9 11 1015.2 - 0.0 - - - - - - -
25/10:30am 16.4 N 11 13 1015.2 - 0.0 - - - - - - -
25/10:00am 16.0 N 10 12 1015.2 - 0.0 - - - - - - -
25/09:30am 15.4 NW 6 8 1015.6 - 0.0 - - - - - - -
25/09:00am 15.2 N 8 9 1015.3 - 0.0 - - - - - - -
25/08:30am 15.3 N 10 11 1015.4 - 0.0 - - - - - - -
25/08:00am 14.9 NNW 10 12 1015.5 - 0.0 - - - - - - -
25/07:30am 15.0 NNW 11 13 1015.5 - 0.0 - - - - - - -
25/07:00am 14.8 NNW 7 9 1015.4 - 0.0 - - - - - - -
25/06:30am 15.2 N 9 10 1015.4 - 0.0 - - - - - - -
25/06:00am 15.1 N 8 11 1015.7 - 0.0 - - - - - - -
25/05:30am 14.9 NNW 5 7 1015.8 - 0.0 - - - - - - -
25/05:00am 15.1 N 7 9 1016.1 - 0.0 - - - - - - -
25/04:30am 15.1 N 10 12 1016.4 - 0.0 - - - - - - -
25/04:00am 15.0 N 10 11 1016.7 - 0.0 - - - - - - -
25/03:30am 14.9 N 9 11 1017.0 - 0.0 - - - - - - -
25/03:00am 15.2 N 11 14 1017.8 - 0.0 - - - - - - -
25/02:30am 15.0 N 12 14 1017.8 - 0.0 - - - - - - -
25/02:00am 15.0 NNE 10 12 1018.3 - 0.0 - - - - - - -
25/01:30am 15.2 N 15 18 1018.5 - 0.0 - - - - - - -
25/01:00am 15.1 N 14 18 1018.8 - 0.0 - - - - - - -
25/12:30am 15.0 N 15 18 1019.2 - 0.0 - - - - - - -
25/12:00am 15.1 NNE 13 16 1019.8 - 0.0 - - - - - - -
 
Date/Time
EDT
Temp
°C
Wind Pressure Rain since
9am
mm
Weather Cloud Vis
km
Sea
Height
m
Swell
Dir  Spd
kts
Gust
kts
hPa Trend Height
m
Period
s
Dir
24/11:30pm 15.1 N 15 18 1019.9 - 0.0 - - - - - - -
24/11:00pm 15.0 NNE 14 16 1020.1 - 0.0 - - - - - - -
24/10:30pm 14.7 NNE 12 16 1020.1 - 0.0 - - - - - - -
24/10:00pm 14.4 NNE 9 12 1020.3 - 0.0 - - - - - - -
24/09:30pm 14.4 NNE 11 14 1020.6 - 0.0 - - - - - - -
24/09:00pm 14.4 NNE 8 10 1021.1 - 0.0 - - - - - - -
24/08:30pm 14.3 NNE 10 12 1020.8 - 0.0 - - - - - - -
24/08:00pm 13.6 NE 5 9 1021.3 - 0.0 - - - - - - -
24/07:30pm 14.2 NNE 9 11 1021.4 - 0.0 - - - - - - -
24/07:00pm 14.4 NNE 6 9 1021.4 - 0.0 - - - - - - -
24/06:30pm 14.6 NNE 8 9 1021.1 - 0.0 - - - - - - -
24/06:00pm 15.2 N 5 7 1021.2 - 0.0 - - - - - - -
24/05:30pm 15.4 ESE 4 5 1021.4 - 0.0 - - - - - - -
24/05:00pm 15.7 ESE 3 4 1021.2 - 0.0 - - - - - - -
24/04:30pm 15.6 N 7 10 1021.7 - 0.0 - - - - - - -
24/04:00pm 16.4 N 8 9 1021.6 - 0.0 - - - - - - -
24/03:30pm 16.1 N 7 10 1022.4 - 0.0 - - - - - - -
24/03:00pm 16.6 N 6 10 1022.9 - 0.0 - - - - - - -
24/02:30pm 16.6 ESE 9 12 1023.2 - 0.0 - - - - - - -
24/02:00pm 16.1 ESE 9 12 1023.4 - 0.0 - - - - - - -
24/01:30pm 16.0 ESE 10 13 1023.6 - 0.0 - - - - - - -
24/01:00pm 15.5 ESE 9 12 1023.8 - 0.0 - - - - - - -
24/12:30pm 15.3 ESE 8 10 1024.1 - 0.0 - - - - - - -
24/12:00pm 16.0 E 6 10 1024.5 - 0.0 - - - - - - -
24/11:30am 15.4 N 2 3 1024.9 - 0.0 - - - - - - -
24/11:00am 14.9 W 2 4 1025.0 - 0.0 - - - - - - -
24/10:30am 14.7 SSW 2 3 1025.2 - 0.0 - - - - - - -
24/10:00am 13.8 CALM 0 1 1025.2 - 0.0 - - - - - - -
24/09:30am 13.1 CALM 0 2 1025.1 - 0.0 - - - - - - -
24/09:00am 12.2 WNW 2 3 1025.0 - 0.0 - - - - - - -
24/08:30am 12.2 NNW 1 2 1024.6 - 0.0 - - - - - - -
24/08:00am 11.6 WNW 3 3 1024.6 - 0.0 - - - - - - -
24/07:30am 11.7 WNW 3 4 1024.4 - 0.0 - - - - - - -
24/07:00am 12.2 WSW 3 5 1024.3 - 0.0 - - - - - - -
24/06:30am 11.7 W 6 7 1024.1 - 0.0 - - - - - - -
24/06:00am 11.9 WNW 3 3 1024.1 - 0.0 - - - - - - -
24/05:30am 11.6 W 3 4 1024.3 - 0.0 - - - - - - -
24/05:00am 11.6 CALM 0 2 1024.3 - 0.0 - - - - - - -
24/04:30am 12.0 SSE 1 1 1024.3 - 0.0 - - - - - - -
24/04:00am 12.7 WSW 2 2 1024.1 - 0.0 - - - - - - -
24/03:30am 12.2 W 4 5 1024.2 - 0.0 - - - - - - -
24/03:00am 12.4 NNW 2 3 1023.9 - 0.0 - - - - - - -
24/02:30am 12.6 NE 1 2 1024.0 - 0.0 - - - - - - -

Other Formats:

Comma delimited format used in spreadsheet applications
http://www.bom.gov.au/fwo/IDT60701/IDT60701.95988.axf

JavaScript Object Notation format (JSON) in row-major order
http://www.bom.gov.au/fwo/IDT60701/IDT60701.95988.json